sensor_id;sensor_type;location;lat;lon;timestamp;P1;durP1;ratioP1;P2;durP2;ratioP2
64426;SDS011;50772;51.482;-0.580;2022-08-19T00:02:06;1.53;;;1.23;;
64426;SDS011;50772;51.482;-0.580;2022-08-19T00:04:33;1.27;;;1.27;;
64426;SDS011;50772;51.482;-0.580;2022-08-19T00:07:01;1.92;;;1.65;;
64426;SDS011;50772;51.482;-0.580;2022-08-19T00:09:27;1.73;;;1.63;;
64426;SDS011;50772;51.482;-0.580;2022-08-19T00:11:53;1.58;;;1.48;;
64426;SDS011;50772;51.482;-0.580;2022-08-19T00:14:20;2.47;;;1.40;;
64426;SDS011;50772;51.482;-0.580;2022-08-19T00:16:46;1.88;;;1.75;;
64426;SDS011;50772;51.482;-0.580;2022-08-19T00:19:12;1.45;;;1.45;;
64426;SDS011;50772;51.482;-0.580;2022-08-19T00:21:38;1.88;;;1.77;;
64426;SDS011;50772;51.482;-0.580;2022-08-19T00:24:05;1.52;;;1.42;;
64426;SDS011;50772;51.482;-0.580;2022-08-19T00:26:30;3.50;;;2.25;;
64426;SDS011;50772;51.482;-0.580;2022-08-19T00:28:55;2.30;;;1.80;;
64426;SDS011;50772;51.482;-0.580;2022-08-19T00:31:21;1.75;;;1.65;;
64426;SDS011;50772;51.482;-0.580;2022-08-19T00:33:46;2.00;;;1.80;;
64426;SDS011;50772;51.482;-0.580;2022-08-19T00:36:12;1.73;;;1.63;;
64426;SDS011;50772;51.482;-0.580;2022-08-19T00:38:39;1.85;;;1.75;;
64426;SDS011;50772;51.482;-0.580;2022-08-19T00:41:07;2.30;;;2.20;;
64426;SDS011;50772;51.482;-0.580;2022-08-19T00:43:33;3.05;;;2.10;;
64426;SDS011;50772;51.482;-0.580;2022-08-19T00:45:59;2.78;;;2.22;;
64426;SDS011;50772;51.482;-0.580;2022-08-19T00:48:24;2.00;;;1.90;;
64426;SDS011;50772;51.482;-0.580;2022-08-19T00:50:50;1.80;;;1.70;;
64426;SDS011;50772;51.482;-0.580;2022-08-19T00:53:17;3.65;;;1.90;;
64426;SDS011;50772;51.482;-0.580;2022-08-19T00:55:45;2.00;;;1.90;;
64426;SDS011;50772;51.482;-0.580;2022-08-19T00:58:12;2.53;;;2.33;;
64426;SDS011;50772;51.482;-0.580;2022-08-19T01:00:38;2.03;;;1.83;;
64426;SDS011;50772;51.482;-0.580;2022-08-19T01:03:08;1.90;;;1.80;;
64426;SDS011;50772;51.482;-0.580;2022-08-19T01:05:34;1.88;;;1.77;;
64426;SDS011;50772;51.482;-0.580;2022-08-19T01:08:00;2.83;;;2.00;;
64426;SDS011;50772;51.482;-0.580;2022-08-19T01:10:27;1.42;;;1.42;;
64426;SDS011;50772;51.482;-0.580;2022-08-19T01:12:52;2.20;;;2.10;;
64426;SDS011;50772;51.482;-0.580;2022-08-19T01:15:20;2.85;;;2.55;;
64426;SDS011;50772;51.482;-0.580;2022-08-19T01:17:46;2.30;;;2.15;;
64426;SDS011;50772;51.482;-0.580;2022-08-19T01:20:16;2.95;;;1.90;;
64426;SDS011;50772;51.482;-0.580;2022-08-19T01:25:07;2.23;;;2.07;;
64426;SDS011;50772;51.482;-0.580;2022-08-19T01:27:43;2.53;;;2.33;;
64426;SDS011;50772;51.482;-0.580;2022-08-19T01:30:10;2.08;;;1.80;;
64426;SDS011;50772;51.482;-0.580;2022-08-19T01:32:36;1.92;;;1.83;;
64426;SDS011;50772;51.482;-0.580;2022-08-19T01:35:01;2.20;;;2.00;;
64426;SDS011;50772;51.482;-0.580;2022-08-19T01:37:27;2.10;;;2.00;;
64426;SDS011;50772;51.482;-0.580;2022-08-19T01:39:52;4.33;;;2.03;;
64426;SDS011;50772;51.482;-0.580;2022-08-19T01:42:18;2.50;;;2.10;;
64426;SDS011;50772;51.482;-0.580;2022-08-19T01:44:44;2.38;;;2.17;;
64426;SDS011;50772;51.482;-0.580;2022-08-19T01:47:09;2.88;;;2.40;;
64426;SDS011;50772;51.482;-0.580;2022-08-19T01:49:35;2.47;;;2.30;;
64426;SDS011;50772;51.482;-0.580;2022-08-19T01:52:01;3.08;;;2.40;;
64426;SDS011;50772;51.482;-0.580;2022-08-19T01:54:26;2.60;;;2.20;;
64426;SDS011;50772;51.482;-0.580;2022-08-19T01:56:53;2.33;;;2.20;;
64426;SDS011;50772;51.482;-0.580;2022-08-19T01:59:20;2.85;;;2.10;;
64426;SDS011;50772;51.482;-0.580;2022-08-19T02:01:46;3.13;;;2.63;;
64426;SDS011;50772;51.482;-0.580;2022-08-19T02:04:11;2.70;;;2.27;;
64426;SDS011;50772;51.482;-0.580;2022-08-19T02:06:36;2.60;;;2.40;;
64426;SDS011;50772;51.482;-0.580;2022-08-19T02:09:03;3.40;;;2.35;;
64426;SDS011;50772;51.482;-0.580;2022-08-19T02:11:29;2.83;;;2.55;;
64426;SDS011;50772;51.482;-0.580;2022-08-19T02:13:56;2.50;;;2.28;;
64426;SDS011;50772;51.482;-0.580;2022-08-19T02:16:22;2.42;;;2.22;;
64426;SDS011;50772;51.482;-0.580;2022-08-19T02:18:47;2.83;;;2.53;;
64426;SDS011;50772;51.482;-0.580;2022-08-19T02:21:18;2.40;;;2.15;;
64426;SDS011;50772;51.482;-0.580;2022-08-19T02:23:44;2.78;;;2.40;;
64426;SDS011;50772;51.482;-0.580;2022-08-19T02:26:11;2.25;;;2.10;;
64426;SDS011;50772;51.482;-0.580;2022-08-19T02:28:37;2.08;;;1.95;;
64426;SDS011;50772;51.482;-0.580;2022-08-19T02:31:03;2.30;;;2.00;;
64426;SDS011;50772;51.482;-0.580;2022-08-19T02:33:29;2.05;;;1.77;;
64426;SDS011;50772;51.482;-0.580;2022-08-19T02:35:54;1.63;;;1.52;;
64426;SDS011;50772;51.482;-0.580;2022-08-19T02:38:19;2.00;;;1.90;;
64426;SDS011;50772;51.482;-0.580;2022-08-19T02:40:52;2.28;;;1.98;;
64426;SDS011;50772;51.482;-0.580;2022-08-19T02:43:18;1.80;;;1.70;;
64426;SDS011;50772;51.482;-0.580;2022-08-19T02:45:45;2.60;;;1.90;;
64426;SDS011;50772;51.482;-0.580;2022-08-19T02:48:10;3.22;;;1.60;;
64426;SDS011;50772;51.482;-0.580;2022-08-19T02:50:39;2.00;;;1.60;;
64426;SDS011;50772;51.482;-0.580;2022-08-19T02:53:04;1.65;;;1.60;;
64426;SDS011;50772;51.482;-0.580;2022-08-19T02:55:29;2.40;;;1.63;;
64426;SDS011;50772;51.482;-0.580;2022-08-19T02:57:54;1.93;;;1.37;;
64426;SDS011;50772;51.482;-0.580;2022-08-19T03:00:20;1.90;;;1.80;;
64426;SDS011;50772;51.482;-0.580;2022-08-19T03:02:45;2.05;;;1.70;;
64426;SDS011;50772;51.482;-0.580;2022-08-19T03:05:11;1.83;;;1.73;;
64426;SDS011;50772;51.482;-0.580;2022-08-19T03:07:37;1.70;;;1.60;;
64426;SDS011;50772;51.482;-0.580;2022-08-19T03:10:02;2.70;;;1.50;;
64426;SDS011;50772;51.482;-0.580;2022-08-19T03:12:28;1.70;;;1.60;;
64426;SDS011;50772;51.482;-0.580;2022-08-19T03:14:53;1.70;;;1.60;;
64426;SDS011;50772;51.482;-0.580;2022-08-19T03:17:18;1.40;;;1.37;;
64426;SDS011;50772;51.482;-0.580;2022-08-19T03:19:44;1.92;;;1.50;;
64426;SDS011;50772;51.482;-0.580;2022-08-19T03:22:09;0.95;;;0.93;;
64426;SDS011;50772;51.482;-0.580;2022-08-19T03:24:34;1.60;;;1.40;;
64426;SDS011;50772;51.482;-0.580;2022-08-19T03:27:00;1.80;;;0.93;;
64426;SDS011;50772;51.482;-0.580;2022-08-19T03:29:26;1.02;;;1.02;;
64426;SDS011;50772;51.482;-0.580;2022-08-19T03:31:52;1.25;;;1.17;;
64426;SDS011;50772;51.482;-0.580;2022-08-19T03:34:19;1.90;;;0.90;;
64426;SDS011;50772;51.482;-0.580;2022-08-19T03:36:45;1.00;;;1.00;;
64426;SDS011;50772;51.482;-0.580;2022-08-19T03:39:10;1.05;;;0.90;;
64426;SDS011;50772;51.482;-0.580;2022-08-19T03:41:36;0.83;;;0.80;;
64426;SDS011;50772;51.482;-0.580;2022-08-19T03:44:02;1.20;;;1.20;;
64426;SDS011;50772;51.482;-0.580;2022-08-19T03:46:28;0.90;;;0.90;;
64426;SDS011;50772;51.482;-0.580;2022-08-19T03:48:55;1.13;;;1.02;;
64426;SDS011;50772;51.482;-0.580;2022-08-19T03:51:22;1.17;;;1.15;;
64426;SDS011;50772;51.482;-0.580;2022-08-19T03:53:49;1.02;;;1.02;;
64426;SDS011;50772;51.482;-0.580;2022-08-19T03:56:14;1.57;;;1.23;;
64426;SDS011;50772;51.482;-0.580;2022-08-19T03:58:40;0.90;;;0.90;;
64426;SDS011;50772;51.482;-0.580;2022-08-19T04:01:09;0.65;;;0.65;;
64426;SDS011;50772;51.482;-0.580;2022-08-19T04:03:34;0.93;;;0.93;;
64426;SDS011;50772;51.482;-0.580;2022-08-19T04:06:09;0.93;;;0.90;;
64426;SDS011;50772;51.482;-0.580;2022-08-19T04:08:34;0.70;;;0.70;;
64426;SDS011;50772;51.482;-0.580;2022-08-19T04:10:59;0.73;;;0.73;;
64426;SDS011;50772;51.482;-0.580;2022-08-19T04:13:24;0.50;;;0.50;;
64426;SDS011;50772;51.482;-0.580;2022-08-19T04:15:50;1.08;;;1.08;;
64426;SDS011;50772;51.482;-0.580;2022-08-19T04:18:15;0.65;;;0.65;;
64426;SDS011;50772;51.482;-0.580;2022-08-19T04:20:45;0.60;;;0.60;;
64426;SDS011;50772;51.482;-0.580;2022-08-19T04:23:11;0.43;;;0.43;;
64426;SDS011;50772;51.482;-0.580;2022-08-19T04:25:37;0.50;;;0.50;;
64426;SDS011;50772;51.482;-0.580;2022-08-19T04:28:03;0.40;;;0.40;;
64426;SDS011;50772;51.482;-0.580;2022-08-19T04:30:28;1.27;;;0.70;;
64426;SDS011;50772;51.482;-0.580;2022-08-19T04:32:53;0.50;;;0.50;;
64426;SDS011;50772;51.482;-0.580;2022-08-19T04:35:18;0.40;;;0.40;;
64426;SDS011;50772;51.482;-0.580;2022-08-19T04:37:43;0.30;;;0.30;;
64426;SDS011;50772;51.482;-0.580;2022-08-19T04:40:09;0.25;;;0.25;;
64426;SDS011;50772;51.482;-0.580;2022-08-19T04:42:53;0.57;;;0.50;;
64426;SDS011;50772;51.482;-0.580;2022-08-19T04:45:18;0.32;;;0.32;;
64426;SDS011;50772;51.482;-0.580;2022-08-19T04:47:44;0.57;;;0.40;;
64426;SDS011;50772;51.482;-0.580;2022-08-19T04:50:09;0.40;;;0.40;;
64426;SDS011;50772;51.482;-0.580;2022-08-19T04:52:37;0.50;;;0.50;;
64426;SDS011;50772;51.482;-0.580;2022-08-19T04:55:03;0.40;;;0.40;;
64426;SDS011;50772;51.482;-0.580;2022-08-19T04:57:28;0.57;;;0.57;;
64426;SDS011;50772;51.482;-0.580;2022-08-19T04:59:54;0.30;;;0.30;;
64426;SDS011;50772;51.482;-0.580;2022-08-19T05:02:20;1.40;;;0.50;;
64426;SDS011;50772;51.482;-0.580;2022-08-19T05:04:49;0.60;;;0.60;;
64426;SDS011;50772;51.482;-0.580;2022-08-19T05:07:14;0.43;;;0.40;;
64426;SDS011;50772;51.482;-0.580;2022-08-19T05:09:40;0.60;;;0.60;;
64426;SDS011;50772;51.482;-0.580;2022-08-19T05:12:05;1.42;;;0.75;;
64426;SDS011;50772;51.482;-0.580;2022-08-19T05:14:31;0.52;;;0.52;;
64426;SDS011;50772;51.482;-0.580;2022-08-19T05:16:56;0.53;;;0.53;;
64426;SDS011;50772;51.482;-0.580;2022-08-19T05:19:21;0.50;;;0.50;;
64426;SDS011;50772;51.482;-0.580;2022-08-19T05:22:05;0.90;;;0.52;;
64426;SDS011;50772;51.482;-0.580;2022-08-19T05:24:49;1.55;;;0.50;;
64426;SDS011;50772;51.482;-0.580;2022-08-19T05:27:14;1.20;;;0.60;;
64426;SDS011;50772;51.482;-0.580;2022-08-19T05:29:39;0.33;;;0.33;;
64426;SDS011;50772;51.482;-0.580;2022-08-19T05:32:05;0.50;;;0.50;;
64426;SDS011;50772;51.482;-0.580;2022-08-19T05:34:33;0.47;;;0.47;;
64426;SDS011;50772;51.482;-0.580;2022-08-19T05:36:59;0.50;;;0.30;;
64426;SDS011;50772;51.482;-0.580;2022-08-19T05:39:26;0.52;;;0.43;;
64426;SDS011;50772;51.482;-0.580;2022-08-19T05:41:56;0.50;;;0.50;;
64426;SDS011;50772;51.482;-0.580;2022-08-19T05:44:25;1.65;;;0.47;;
64426;SDS011;50772;51.482;-0.580;2022-08-19T05:46:51;0.28;;;0.25;;
64426;SDS011;50772;51.482;-0.580;2022-08-19T05:49:20;0.98;;;0.30;;
64426;SDS011;50772;51.482;-0.580;2022-08-19T05:51:46;0.52;;;0.40;;
64426;SDS011;50772;51.482;-0.580;2022-08-19T05:54:11;0.30;;;0.30;;
64426;SDS011;50772;51.482;-0.580;2022-08-19T05:56:38;0.50;;;0.40;;
64426;SDS011;50772;51.482;-0.580;2022-08-19T05:59:04;1.90;;;0.40;;
64426;SDS011;50772;51.482;-0.580;2022-08-19T06:01:33;0.52;;;0.43;;
64426;SDS011;50772;51.482;-0.580;2022-08-19T06:03:58;0.40;;;0.30;;
64426;SDS011;50772;51.482;-0.580;2022-08-19T06:06:24;0.55;;;0.50;;
64426;SDS011;50772;51.482;-0.580;2022-08-19T06:08:50;0.32;;;0.30;;
64426;SDS011;50772;51.482;-0.580;2022-08-19T06:13:41;0.20;;;0.20;;
64426;SDS011;50772;51.482;-0.580;2022-08-19T06:16:06;1.75;;;0.50;;
64426;SDS011;50772;51.482;-0.580;2022-08-19T06:18:31;0.40;;;0.30;;
64426;SDS011;50772;51.482;-0.580;2022-08-19T06:20:58;0.43;;;0.43;;
64426;SDS011;50772;51.482;-0.580;2022-08-19T06:23:23;1.80;;;0.50;;
64426;SDS011;50772;51.482;-0.580;2022-08-19T06:25:48;0.70;;;0.50;;
64426;SDS011;50772;51.482;-0.580;2022-08-19T06:28:14;0.43;;;0.43;;
64426;SDS011;50772;51.482;-0.580;2022-08-19T06:30:39;0.40;;;0.40;;
64426;SDS011;50772;51.482;-0.580;2022-08-19T06:33:04;0.67;;;0.50;;
64426;SDS011;50772;51.482;-0.580;2022-08-19T06:35:30;0.53;;;0.40;;
64426;SDS011;50772;51.482;-0.580;2022-08-19T06:37:56;0.55;;;0.55;;
64426;SDS011;50772;51.482;-0.580;2022-08-19T06:40:21;0.83;;;0.40;;
64426;SDS011;50772;51.482;-0.580;2022-08-19T06:42:46;1.35;;;0.60;;
64426;SDS011;50772;51.482;-0.580;2022-08-19T06:45:11;0.50;;;0.50;;
64426;SDS011;50772;51.482;-0.580;2022-08-19T06:47:37;0.50;;;0.50;;
64426;SDS011;50772;51.482;-0.580;2022-08-19T06:50:02;1.40;;;0.40;;
64426;SDS011;50772;51.482;-0.580;2022-08-19T06:52:32;0.38;;;0.38;;
64426;SDS011;50772;51.482;-0.580;2022-08-19T06:54:59;0.75;;;0.38;;
64426;SDS011;50772;51.482;-0.580;2022-08-19T06:57:24;0.50;;;0.50;;
64426;SDS011;50772;51.482;-0.580;2022-08-19T06:59:49;0.67;;;0.50;;
64426;SDS011;50772;51.482;-0.580;2022-08-19T07:02:14;0.68;;;0.50;;
64426;SDS011;50772;51.482;-0.580;2022-08-19T07:04:40;1.33;;;0.67;;
64426;SDS011;50772;51.482;-0.580;2022-08-19T07:07:06;0.60;;;0.60;;
64426;SDS011;50772;51.482;-0.580;2022-08-19T07:09:34;0.65;;;0.50;;
64426;SDS011;50772;51.482;-0.580;2022-08-19T07:12:02;0.68;;;0.60;;
64426;SDS011;50772;51.482;-0.580;2022-08-19T07:14:27;1.98;;;0.73;;
64426;SDS011;50772;51.482;-0.580;2022-08-19T07:16:53;0.97;;;0.67;;
64426;SDS011;50772;51.482;-0.580;2022-08-19T07:19:20;0.63;;;0.45;;
64426;SDS011;50772;51.482;-0.580;2022-08-19T07:21:47;0.60;;;0.60;;
64426;SDS011;50772;51.482;-0.580;2022-08-19T07:24:12;2.05;;;0.50;;
64426;SDS011;50772;51.482;-0.580;2022-08-19T07:26:38;2.23;;;0.87;;
64426;SDS011;50772;51.482;-0.580;2022-08-19T07:29:04;2.63;;;0.75;;
64426;SDS011;50772;51.482;-0.580;2022-08-19T07:31:29;1.02;;;0.63;;
64426;SDS011;50772;51.482;-0.580;2022-08-19T07:33:55;1.90;;;0.67;;
64426;SDS011;50772;51.482;-0.580;2022-08-19T07:36:22;0.77;;;0.70;;
64426;SDS011;50772;51.482;-0.580;2022-08-19T07:38:49;1.48;;;1.38;;
64426;SDS011;50772;51.482;-0.580;2022-08-19T07:41:19;0.82;;;0.57;;
64426;SDS011;50772;51.482;-0.580;2022-08-19T07:43:44;1.02;;;0.80;;
64426;SDS011;50772;51.482;-0.580;2022-08-19T07:46:11;0.55;;;0.50;;
64426;SDS011;50772;51.482;-0.580;2022-08-19T07:48:38;2.15;;;1.08;;
64426;SDS011;50772;51.482;-0.580;2022-08-19T07:51:04;1.57;;;0.80;;
64426;SDS011;50772;51.482;-0.580;2022-08-19T07:53:29;5.22;;;0.93;;
64426;SDS011;50772;51.482;-0.580;2022-08-19T07:55:55;2.25;;;0.85;;
64426;SDS011;50772;51.482;-0.580;2022-08-19T07:58:24;3.10;;;0.90;;
64426;SDS011;50772;51.482;-0.580;2022-08-19T08:00:50;0.93;;;0.90;;
64426;SDS011;50772;51.482;-0.580;2022-08-19T08:03:16;0.57;;;0.57;;
64426;SDS011;50772;51.482;-0.580;2022-08-19T08:05:42;0.70;;;0.70;;
64426;SDS011;50772;51.482;-0.580;2022-08-19T08:08:26;0.55;;;0.55;;
64426;SDS011;50772;51.482;-0.580;2022-08-19T08:11:10;0.85;;;0.85;;
64426;SDS011;50772;51.482;-0.580;2022-08-19T08:13:36;1.20;;;0.57;;
64426;SDS011;50772;51.482;-0.580;2022-08-19T08:16:01;1.90;;;0.70;;
64426;SDS011;50772;51.482;-0.580;2022-08-19T08:18:27;1.20;;;0.80;;
64426;SDS011;50772;51.482;-0.580;2022-08-19T08:20:52;1.85;;;0.80;;
64426;SDS011;50772;51.482;-0.580;2022-08-19T08:23:17;1.00;;;0.87;;
64426;SDS011;50772;51.482;-0.580;2022-08-19T08:25:52;1.60;;;0.70;;
64426;SDS011;50772;51.482;-0.580;2022-08-19T08:28:18;1.55;;;1.05;;
64426;SDS011;50772;51.482;-0.580;2022-08-19T08:30:44;2.33;;;0.93;;
64426;SDS011;50772;51.482;-0.580;2022-08-19T08:33:12;5.32;;;1.40;;
64426;SDS011;50772;51.482;-0.580;2022-08-19T08:35:38;2.25;;;1.10;;
64426;SDS011;50772;51.482;-0.580;2022-08-19T08:38:06;2.63;;;0.73;;
64426;SDS011;50772;51.482;-0.580;2022-08-19T08:43:13;1.63;;;0.88;;
64426;SDS011;50772;51.482;-0.580;2022-08-19T08:45:44;1.60;;;0.85;;
64426;SDS011;50772;51.482;-0.580;2022-08-19T08:48:16;1.88;;;1.25;;
64426;SDS011;50772;51.482;-0.580;2022-08-19T08:50:43;1.15;;;0.90;;
64426;SDS011;50772;51.482;-0.580;2022-08-19T08:53:09;2.35;;;1.13;;
64426;SDS011;50772;51.482;-0.580;2022-08-19T08:55:35;4.57;;;1.17;;
64426;SDS011;50772;51.482;-0.580;2022-08-19T08:58:01;1.77;;;1.10;;
64426;SDS011;50772;51.482;-0.580;2022-08-19T09:00:29;4.80;;;1.20;;
64426;SDS011;50772;51.482;-0.580;2022-08-19T09:02:55;4.40;;;1.15;;
64426;SDS011;50772;51.482;-0.580;2022-08-19T09:05:22;7.32;;;1.10;;
64426;SDS011;50772;51.482;-0.580;2022-08-19T09:10:33;2.22;;;1.08;;
64426;SDS011;50772;51.482;-0.580;2022-08-19T09:15:33;2.25;;;1.20;;
64426;SDS011;50772;51.482;-0.580;2022-08-19T09:18:00;4.03;;;1.08;;
64426;SDS011;50772;51.482;-0.580;2022-08-19T09:20:27;2.97;;;1.42;;
64426;SDS011;50772;51.482;-0.580;2022-08-19T09:22:52;1.50;;;0.95;;
64426;SDS011;50772;51.482;-0.580;2022-08-19T09:25:19;1.53;;;1.40;;
64426;SDS011;50772;51.482;-0.580;2022-08-19T09:27:46;4.03;;;1.25;;
64426;SDS011;50772;51.482;-0.580;2022-08-19T09:30:31;2.00;;;1.58;;
64426;SDS011;50772;51.482;-0.580;2022-08-19T09:32:56;2.03;;;1.30;;
64426;SDS011;50772;51.482;-0.580;2022-08-19T09:35:22;2.37;;;1.40;;
64426;SDS011;50772;51.482;-0.580;2022-08-19T09:37:48;2.10;;;1.42;;
64426;SDS011;50772;51.482;-0.580;2022-08-19T09:40:14;2.58;;;1.38;;
64426;SDS011;50772;51.482;-0.580;2022-08-19T09:42:40;3.90;;;1.60;;
64426;SDS011;50772;51.482;-0.580;2022-08-19T09:45:08;3.10;;;1.30;;
64426;SDS011;50772;51.482;-0.580;2022-08-19T09:47:33;2.85;;;1.30;;
64426;SDS011;50772;51.482;-0.580;2022-08-19T09:50:01;2.83;;;1.48;;
64426;SDS011;50772;51.482;-0.580;2022-08-19T09:52:26;4.10;;;1.30;;
64426;SDS011;50772;51.482;-0.580;2022-08-19T09:54:52;1.47;;;1.23;;
64426;SDS011;50772;51.482;-0.580;2022-08-19T09:57:17;3.72;;;1.40;;
64426;SDS011;50772;51.482;-0.580;2022-08-19T09:59:42;3.22;;;1.38;;
64426;SDS011;50772;51.482;-0.580;2022-08-19T10:02:09;1.50;;;1.40;;
64426;SDS011;50772;51.482;-0.580;2022-08-19T10:04:34;2.55;;;1.15;;
64426;SDS011;50772;51.482;-0.580;2022-08-19T10:07:18;1.33;;;1.23;;
64426;SDS011;50772;51.482;-0.580;2022-08-19T10:09:43;1.93;;;1.00;;
64426;SDS011;50772;51.482;-0.580;2022-08-19T10:12:09;1.90;;;1.60;;
64426;SDS011;50772;51.482;-0.580;2022-08-19T10:14:34;1.67;;;1.13;;
64426;SDS011;50772;51.482;-0.580;2022-08-19T10:16:59;2.77;;;0.87;;
64426;SDS011;50772;51.482;-0.580;2022-08-19T10:19:27;2.83;;;1.30;;
64426;SDS011;50772;51.482;-0.580;2022-08-19T10:21:57;3.47;;;1.27;;
64426;SDS011;50772;51.482;-0.580;2022-08-19T10:24:22;5.07;;;1.23;;
64426;SDS011;50772;51.482;-0.580;2022-08-19T10:26:49;1.38;;;1.27;;
64426;SDS011;50772;51.482;-0.580;2022-08-19T10:29:14;3.92;;;1.42;;
64426;SDS011;50772;51.482;-0.580;2022-08-19T10:31:41;2.33;;;1.08;;
64426;SDS011;50772;51.482;-0.580;2022-08-19T10:34:06;3.08;;;1.17;;
64426;SDS011;50772;51.482;-0.580;2022-08-19T10:36:33;2.27;;;0.97;;
64426;SDS011;50772;51.482;-0.580;2022-08-19T10:39:02;1.83;;;1.08;;
64426;SDS011;50772;51.482;-0.580;2022-08-19T10:41:29;1.80;;;1.35;;
64426;SDS011;50772;51.482;-0.580;2022-08-19T10:43:56;1.38;;;1.25;;
64426;SDS011;50772;51.482;-0.580;2022-08-19T10:46:23;2.65;;;1.05;;
64426;SDS011;50772;51.482;-0.580;2022-08-19T10:48:49;3.17;;;1.25;;
64426;SDS011;50772;51.482;-0.580;2022-08-19T10:51:14;3.05;;;1.45;;
64426;SDS011;50772;51.482;-0.580;2022-08-19T10:53:59;5.57;;;1.20;;
64426;SDS011;50772;51.482;-0.580;2022-08-19T10:56:24;1.88;;;1.25;;
64426;SDS011;50772;51.482;-0.580;2022-08-19T10:59:08;3.42;;;1.20;;
64426;SDS011;50772;51.482;-0.580;2022-08-19T11:01:34;4.07;;;1.50;;
64426;SDS011;50772;51.482;-0.580;2022-08-19T11:04:00;2.35;;;1.48;;
64426;SDS011;50772;51.482;-0.580;2022-08-19T11:06:25;3.70;;;1.30;;
64426;SDS011;50772;51.482;-0.580;2022-08-19T11:08:51;3.25;;;1.70;;
64426;SDS011;50772;51.482;-0.580;2022-08-19T11:11:17;2.25;;;1.30;;
64426;SDS011;50772;51.482;-0.580;2022-08-19T11:13:42;2.28;;;1.08;;
64426;SDS011;50772;51.482;-0.580;2022-08-19T11:18:35;3.13;;;1.13;;
64426;SDS011;50772;51.482;-0.580;2022-08-19T11:21:35;2.85;;;1.30;;
64426;SDS011;50772;51.482;-0.580;2022-08-19T11:23:54;4.07;;;2.50;;
64426;SDS011;50772;51.482;-0.580;2022-08-19T11:26:20;2.72;;;1.60;;
64426;SDS011;50772;51.482;-0.580;2022-08-19T11:28:45;3.78;;;1.15;;
64426;SDS011;50772;51.482;-0.580;2022-08-19T11:31:15;2.50;;;1.40;;
64426;SDS011;50772;51.482;-0.580;2022-08-19T11:33:41;2.38;;;1.17;;
64426;SDS011;50772;51.482;-0.580;2022-08-19T11:36:07;2.17;;;1.63;;
64426;SDS011;50772;51.482;-0.580;2022-08-19T11:38:32;2.58;;;1.20;;
64426;SDS011;50772;51.482;-0.580;2022-08-19T11:41:00;4.88;;;1.50;;
64426;SDS011;50772;51.482;-0.580;2022-08-19T11:43:25;1.35;;;1.20;;
64426;SDS011;50772;51.482;-0.580;2022-08-19T11:45:51;2.97;;;1.38;;
64426;SDS011;50772;51.482;-0.580;2022-08-19T11:48:17;1.75;;;1.27;;
64426;SDS011;50772;51.482;-0.580;2022-08-19T11:50:46;2.22;;;1.15;;
64426;SDS011;50772;51.482;-0.580;2022-08-19T11:53:11;3.80;;;1.30;;
64426;SDS011;50772;51.482;-0.580;2022-08-19T11:55:37;3.03;;;1.40;;
64426;SDS011;50772;51.482;-0.580;2022-08-19T11:58:04;2.35;;;1.42;;
64426;SDS011;50772;51.482;-0.580;2022-08-19T12:00:31;3.58;;;1.30;;
64426;SDS011;50772;51.482;-0.580;2022-08-19T12:02:56;2.70;;;1.35;;
64426;SDS011;50772;51.482;-0.580;2022-08-19T12:05:22;2.90;;;1.20;;
64426;SDS011;50772;51.482;-0.580;2022-08-19T12:07:47;2.17;;;1.23;;
64426;SDS011;50772;51.482;-0.580;2022-08-19T12:10:12;2.47;;;1.60;;
64426;SDS011;50772;51.482;-0.580;2022-08-19T12:12:37;2.20;;;1.27;;
64426;SDS011;50772;51.482;-0.580;2022-08-19T12:15:07;1.48;;;1.15;;
64426;SDS011;50772;51.482;-0.580;2022-08-19T12:17:32;1.95;;;0.88;;
64426;SDS011;50772;51.482;-0.580;2022-08-19T12:19:58;0.95;;;0.80;;
64426;SDS011;50772;51.482;-0.580;2022-08-19T12:22:23;1.57;;;1.20;;
64426;SDS011;50772;51.482;-0.580;2022-08-19T12:24:50;3.00;;;1.30;;
64426;SDS011;50772;51.482;-0.580;2022-08-19T12:27:17;2.22;;;1.15;;
64426;SDS011;50772;51.482;-0.580;2022-08-19T12:29:42;2.05;;;1.45;;
64426;SDS011;50772;51.482;-0.580;2022-08-19T12:32:08;2.10;;;1.20;;
64426;SDS011;50772;51.482;-0.580;2022-08-19T12:34:34;2.65;;;1.17;;
64426;SDS011;50772;51.482;-0.580;2022-08-19T12:37:01;1.55;;;0.93;;
64426;SDS011;50772;51.482;-0.580;2022-08-19T12:39:27;1.20;;;1.10;;
64426;SDS011;50772;51.482;-0.580;2022-08-19T12:41:52;2.07;;;1.23;;
64426;SDS011;50772;51.482;-0.580;2022-08-19T12:44:17;1.42;;;0.98;;
64426;SDS011;50772;51.482;-0.580;2022-08-19T12:46:43;3.13;;;1.30;;
64426;SDS011;50772;51.482;-0.580;2022-08-19T12:49:08;2.03;;;1.00;;
64426;SDS011;50772;51.482;-0.580;2022-08-19T12:51:33;5.13;;;0.93;;
64426;SDS011;50772;51.482;-0.580;2022-08-19T12:53:58;1.47;;;1.10;;
64426;SDS011;50772;51.482;-0.580;2022-08-19T12:56:24;3.78;;;1.13;;
64426;SDS011;50772;51.482;-0.580;2022-08-19T12:58:49;3.13;;;1.38;;
64426;SDS011;50772;51.482;-0.580;2022-08-19T13:01:15;2.88;;;1.33;;
64426;SDS011;50772;51.482;-0.580;2022-08-19T13:03:41;2.00;;;0.85;;
64426;SDS011;50772;51.482;-0.580;2022-08-19T13:06:07;2.25;;;1.13;;
64426;SDS011;50772;51.482;-0.580;2022-08-19T13:08:33;5.70;;;1.45;;
64426;SDS011;50772;51.482;-0.580;2022-08-19T13:11:06;3.22;;;1.02;;
64426;SDS011;50772;51.482;-0.580;2022-08-19T13:13:31;2.53;;;1.38;;
64426;SDS011;50772;51.482;-0.580;2022-08-19T13:15:59;6.90;;;1.53;;
64426;SDS011;50772;51.482;-0.580;2022-08-19T13:20:51;2.72;;;1.05;;
64426;SDS011;50772;51.482;-0.580;2022-08-19T13:23:17;0.98;;;0.90;;
64426;SDS011;50772;51.482;-0.580;2022-08-19T13:25:43;2.73;;;1.27;;
64426;SDS011;50772;51.482;-0.580;2022-08-19T13:28:08;1.67;;;1.00;;
64426;SDS011;50772;51.482;-0.580;2022-08-19T13:30:33;3.10;;;1.20;;
64426;SDS011;50772;51.482;-0.580;2022-08-19T13:33:17;1.98;;;1.05;;
64426;SDS011;50772;51.482;-0.580;2022-08-19T13:35:47;2.28;;;1.00;;
64426;SDS011;50772;51.482;-0.580;2022-08-19T13:38:13;2.78;;;1.05;;
64426;SDS011;50772;51.482;-0.580;2022-08-19T13:40:39;2.65;;;1.10;;
64426;SDS011;50772;51.482;-0.580;2022-08-19T13:43:04;1.52;;;1.00;;
64426;SDS011;50772;51.482;-0.580;2022-08-19T13:45:30;1.70;;;1.13;;
64426;SDS011;50772;51.482;-0.580;2022-08-19T13:47:58;0.65;;;0.65;;
64426;SDS011;50772;51.482;-0.580;2022-08-19T13:50:25;1.83;;;1.20;;
64426;SDS011;50772;51.482;-0.580;2022-08-19T13:52:51;3.45;;;1.40;;
64426;SDS011;50772;51.482;-0.580;2022-08-19T13:55:16;4.38;;;1.23;;
64426;SDS011;50772;51.482;-0.580;2022-08-19T13:57:42;3.30;;;1.00;;
64426;SDS011;50772;51.482;-0.580;2022-08-19T14:00:08;2.93;;;1.27;;
64426;SDS011;50772;51.482;-0.580;2022-08-19T14:02:35;2.20;;;1.13;;
64426;SDS011;50772;51.482;-0.580;2022-08-19T14:05:02;1.58;;;1.17;;
64426;SDS011;50772;51.482;-0.580;2022-08-19T14:07:27;3.00;;;1.40;;
64426;SDS011;50772;51.482;-0.580;2022-08-19T14:09:52;3.17;;;1.20;;
64426;SDS011;50772;51.482;-0.580;2022-08-19T14:12:18;1.90;;;1.10;;
64426;SDS011;50772;51.482;-0.580;2022-08-19T14:14:44;1.58;;;1.40;;
64426;SDS011;50772;51.482;-0.580;2022-08-19T14:17:09;3.20;;;1.30;;
64426;SDS011;50772;51.482;-0.580;2022-08-19T14:19:34;2.20;;;0.93;;
64426;SDS011;50772;51.482;-0.580;2022-08-19T14:21:59;3.15;;;1.30;;
64426;SDS011;50772;51.482;-0.580;2022-08-19T14:24:24;3.77;;;1.30;;
64426;SDS011;50772;51.482;-0.580;2022-08-19T14:26:50;2.08;;;1.30;;
64426;SDS011;50772;51.482;-0.580;2022-08-19T14:29:15;1.40;;;0.97;;
64426;SDS011;50772;51.482;-0.580;2022-08-19T14:31:41;4.15;;;1.55;;
64426;SDS011;50772;51.482;-0.580;2022-08-19T14:34:08;1.65;;;0.90;;
64426;SDS011;50772;51.482;-0.580;2022-08-19T14:36:34;3.92;;;1.42;;
64426;SDS011;50772;51.482;-0.580;2022-08-19T14:38:59;1.43;;;1.17;;
64426;SDS011;50772;51.482;-0.580;2022-08-19T14:41:25;3.03;;;0.90;;
64426;SDS011;50772;51.482;-0.580;2022-08-19T14:43:52;2.22;;;1.02;;
64426;SDS011;50772;51.482;-0.580;2022-08-19T14:46:21;2.35;;;1.23;;
64426;SDS011;50772;51.482;-0.580;2022-08-19T14:48:46;2.97;;;1.25;;